Time;durP1;ratioP1;P1;durP2;ratioP2;P2;SDS_P1;SDS_P2;PMS_P1;PMS_P2;Temp;Humidity;BMP_temperature;BMP_pressure;BME280_temperature;BME280_humidity;BME280_pressure;Samples;Min_cycle;Max_cycle;Signal;HPM_P1;HPM_P2
2023/01/29 00:02:22;;;;;;;0.10;0.10;;;;;;;;;;4922990;28;20803;-75
2023/01/29 00:04:48;;;;;;;0.10;0.10;;;;;;;;;;4926571;28;20101;-75
2023/01/29 00:07:14;;;;;;;0.10;0.10;;;;;;;;;;4929508;28;20380;-76
2023/01/29 00:09:43;;;;;;;0.10;0.10;;;;;;;;;;4933403;28;20046;-76
2023/01/29 00:12:09;;;;;;;0.10;0.10;;;;;;;;;;4932157;28;20046;-76
2023/01/29 00:14:35;;;;;;;0.13;0.13;;;;;;;;;;4932672;28;20368;-75
2023/01/29 00:17:01;;;;;;;0.10;0.10;;;;;;;;;;4933218;28;20054;-75
2023/01/29 00:19:27;;;;;;;0.10;0.10;;;;;;;;;;4933424;28;20059;-75
2023/01/29 00:21:54;;;;;;;0.10;0.10;;;;;;;;;;4932427;28;20055;-76
2023/01/29 00:24:20;;;;;;;0.15;0.15;;;;;;;;;;4933700;28;20782;-77
2023/01/29 00:26:48;;;;;;;0.10;0.10;;;;;;;;;;4933218;28;20051;-75
2023/01/29 00:29:16;;;;;;;0.10;0.10;;;;;;;;;;4932296;28;20169;-77
2023/01/29 00:31:43;;;;;;;0.10;0.10;;;;;;;;;;4918576;28;20058;-75
2023/01/29 00:34:10;;;;;;;0.20;0.20;;;;;;;;;;4927164;28;20050;-76
2023/01/29 00:36:36;;;;;;;0.10;0.10;;;;;;;;;;4920500;28;20047;-75
2023/01/29 00:39:09;;;;;;;0.10;0.10;;;;;;;;;;4929624;28;20422;-76
2023/01/29 00:49:51;;;;;;;0.10;0.10;;;;;;;;;;4920694;28;20060;-76
2023/01/29 00:52:22;;;;;;;0.10;0.10;;;;;;;;;;4927036;28;20038;-75
2023/01/29 00:54:48;;;;;;;0.10;0.10;;;;;;;;;;4928496;28;20656;-75
2023/01/29 00:57:14;;;;;;;0.10;0.10;;;;;;;;;;4928444;28;20118;-76
2023/01/29 00:59:40;;;;;;;0.10;0.10;;;;;;;;;;4925180;28;20054;-76
2023/01/29 01:04:51;;;;;;;0.10;0.10;;;;;;;;;;4921756;28;20165;-76
2023/01/29 01:07:17;;;;;;;0.10;0.10;;;;;;;;;;4927665;28;20034;-76
2023/01/29 01:12:28;;;;;;;0.10;0.10;;;;;;;;;;4922380;28;20050;-76
2023/01/29 01:14:54;;;;;;;0.10;0.10;;;;;;;;;;4929097;28;20138;-76
2023/01/29 01:17:20;;;;;;;0.10;0.10;;;;;;;;;;4928016;28;20043;-76
2023/01/29 01:19:46;;;;;;;0.10;0.10;;;;;;;;;;4926789;28;20050;-77
2023/01/29 01:22:12;;;;;;;0.10;0.10;;;;;;;;;;4927058;28;20590;-77
2023/01/29 01:24:38;;;;;;;0.10;0.10;;;;;;;;;;4930719;28;20054;-76
2023/01/29 01:27:04;;;;;;;0.10;0.10;;;;;;;;;;4927851;28;20082;-75
2023/01/29 01:29:31;;;;;;;0.10;0.10;;;;;;;;;;4926499;28;20194;-76
2023/01/29 01:31:58;;;;;;;0.10;0.10;;;;;;;;;;4929480;28;20049;-76
2023/01/29 01:34:25;;;;;;;0.10;0.10;;;;;;;;;;4930775;28;20136;-76
2023/01/29 01:36:51;;;;;;;0.10;0.10;;;;;;;;;;4916499;28;20094;-75
2023/01/29 01:39:18;;;;;;;0.10;0.10;;;;;;;;;;4925259;28;20052;-75
2023/01/29 01:41:45;;;;;;;0.10;0.10;;;;;;;;;;4929490;28;20074;-75
2023/01/29 01:44:29;;;;;;;0.10;0.10;;;;;;;;;;4925196;28;20051;-76
2023/01/29 01:46:55;;;;;;;0.10;0.10;;;;;;;;;;4926991;28;20607;-76
2023/01/29 01:49:23;;;;;;;0.10;0.10;;;;;;;;;;4930198;28;20087;-76
2023/01/29 01:51:50;;;;;;;0.13;0.13;;;;;;;;;;4930660;28;20062;-76
2023/01/29 01:54:20;;;;;;;0.10;0.10;;;;;;;;;;4932007;28;20149;-75
2023/01/29 01:56:49;;;;;;;0.20;0.20;;;;;;;;;;4928494;28;20511;-75
2023/01/29 01:59:18;;;;;;;0.10;0.10;;;;;;;;;;4931889;28;20050;-75
2023/01/29 02:01:48;;;;;;;0.10;0.10;;;;;;;;;;4926503;28;20106;-76
2023/01/29 02:09:51;;;;;;;0.10;0.10;;;;;;;;;;4934089;28;20150;-75
2023/01/29 02:12:18;;;;;;;0.10;0.10;;;;;;;;;;4924657;28;20133;-75
2023/01/29 02:14:44;;;;;;;0.10;0.10;;;;;;;;;;4926818;28;20223;-75
2023/01/29 02:17:14;;;;;;;0.17;0.17;;;;;;;;;;4927583;28;21399;-75
2023/01/29 02:19:49;;;;;;;0.17;0.17;;;;;;;;;;4928698;28;20054;-75
2023/01/29 02:22:15;;;;;;;0.10;0.10;;;;;;;;;;4928457;28;20117;-75
2023/01/29 02:24:48;;;;;;;0.20;0.20;;;;;;;;;;4923981;28;20039;-75
2023/01/29 02:27:32;;;;;;;0.10;0.10;;;;;;;;;;4931726;28;20474;-77
2023/01/29 02:29:58;;;;;;;0.10;0.10;;;;;;;;;;4927363;28;20058;-76
2023/01/29 02:32:28;;;;;;;0.10;0.10;;;;;;;;;;4930554;28;20057;-75
2023/01/29 02:38:00;;;;;;;0.20;0.20;;;;;;;;;;4921914;28;20055;-76
2023/01/29 02:40:31;;;;;;;0.10;0.10;;;;;;;;;;4931727;28;20284;-76
2023/01/29 02:43:03;;;;;;;0.15;0.15;;;;;;;;;;4933554;28;20049;-75
2023/01/29 02:45:53;;;;;;;0.10;0.10;;;;;;;;;;4930208;28;20605;-75
2023/01/29 02:48:21;;;;;;;0.13;0.13;;;;;;;;;;4894464;28;20462;-76
2023/01/29 02:50:56;;;;;;;0.10;0.10;;;;;;;;;;4928063;28;20054;-76
2023/01/29 02:53:40;;;;;;;0.10;0.10;;;;;;;;;;4932952;28;20074;-77
2023/01/29 02:56:09;;;;;;;0.10;0.10;;;;;;;;;;4933349;28;20458;-77
2023/01/29 02:58:35;;;;;;;0.10;0.10;;;;;;;;;;4928955;28;20407;-76
2023/01/29 03:01:06;;;;;;;0.10;0.10;;;;;;;;;;4932912;28;20066;-75
2023/01/29 03:03:38;;;;;;;0.10;0.10;;;;;;;;;;4930488;28;20075;-75
2023/01/29 03:06:07;;;;;;;0.10;0.10;;;;;;;;;;4928985;28;20426;-76
2023/01/29 03:08:44;;;;;;;0.10;0.10;;;;;;;;;;4931026;28;20129;-77
2023/01/29 03:11:14;;;;;;;0.10;0.10;;;;;;;;;;4930378;28;20051;-77
2023/01/29 03:13:44;;;;;;;0.10;0.10;;;;;;;;;;4926536;28;20065;-75
2023/01/29 03:16:19;;;;;;;0.10;0.10;;;;;;;;;;4929413;28;20051;-76
2023/01/29 03:18:49;;;;;;;0.10;0.10;;;;;;;;;;4932503;28;20089;-76
2023/01/29 03:32:25;;;;;;;0.10;0.10;;;;;;;;;;4931352;28;20077;-76
2023/01/29 03:34:53;;;;;;;0.10;0.10;;;;;;;;;;4928873;28;20062;-76
2023/01/29 03:37:28;;;;;;;0.10;0.10;;;;;;;;;;4930228;28;20053;-76
2023/01/29 03:39:55;;;;;;;0.10;0.10;;;;;;;;;;4932092;28;20051;-76
2023/01/29 03:42:25;;;;;;;0.10;0.10;;;;;;;;;;4931466;28;20054;-76
2023/01/29 03:44:59;;;;;;;0.10;0.10;;;;;;;;;;4927635;28;20098;-76
2023/01/29 03:47:40;;;;;;;0.20;0.20;;;;;;;;;;4930790;28;20752;-76
2023/01/29 03:50:09;;;;;;;0.10;0.10;;;;;;;;;;4930739;28;20062;-77
2023/01/29 03:52:35;;;;;;;0.10;0.10;;;;;;;;;;4929728;28;20378;-77
2023/01/29 03:55:05;;;;;;;0.10;0.10;;;;;;;;;;4933015;28;20038;-77
2023/01/29 03:57:35;;;;;;;0.10;0.10;;;;;;;;;;4928307;28;20047;-77
2023/01/29 04:00:03;;;;;;;0.10;0.10;;;;;;;;;;4924386;28;20129;-78
2023/01/29 04:02:31;;;;;;;0.10;0.10;;;;;;;;;;4921798;28;20439;-78
2023/01/29 04:04:59;;;;;;;0.10;0.10;;;;;;;;;;4921356;28;20042;-78
2023/01/29 04:07:25;;;;;;;0.10;0.10;;;;;;;;;;4928499;28;20849;-78
2023/01/29 04:10:01;;;;;;;0.10;0.10;;;;;;;;;;4930500;28;20047;-78
2023/01/29 04:12:32;;;;;;;0.10;0.10;;;;;;;;;;4930823;28;20497;-78
2023/01/29 04:15:01;;;;;;;0.10;0.10;;;;;;;;;;4931133;28;20462;-79
2023/01/29 04:17:36;;;;;;;0.10;0.10;;;;;;;;;;4928432;28;20609;-79
2023/01/29 04:20:03;;;;;;;0.10;0.10;;;;;;;;;;4931783;28;20139;-78
2023/01/29 04:22:33;;;;;;;0.20;0.20;;;;;;;;;;4931509;28;20046;-78
2023/01/29 04:25:07;;;;;;;0.20;0.20;;;;;;;;;;4929395;28;20058;-78
2023/01/29 04:27:52;;;;;;;0.10;0.10;;;;;;;;;;4928619;28;20046;-78
2023/01/29 04:30:18;;;;;;;0.10;0.10;;;;;;;;;;4925668;28;20089;-77
2023/01/29 04:32:57;;;;;;;0.10;0.10;;;;;;;;;;4927771;28;20122;-77
2023/01/29 04:35:30;;;;;;;0.15;0.15;;;;;;;;;;4929174;28;20975;-77
2023/01/29 04:38:01;;;;;;;0.10;0.10;;;;;;;;;;4927371;28;20039;-77
2023/01/29 04:40:50;;;;;;;0.10;0.10;;;;;;;;;;4926692;28;20431;-76
2023/01/29 04:43:22;;;;;;;0.20;0.20;;;;;;;;;;4930412;28;20060;-78
2023/01/29 04:45:55;;;;;;;0.10;0.10;;;;;;;;;;4926098;28;20537;-76
2023/01/29 04:48:24;;;;;;;0.10;0.10;;;;;;;;;;4924868;28;20575;-78
2023/01/29 04:50:59;;;;;;;0.20;0.20;;;;;;;;;;4927465;28;20280;-78
2023/01/29 04:53:35;;;;;;;0.10;0.10;;;;;;;;;;4926675;28;20110;-77
2023/01/29 04:56:09;;;;;;;0.10;0.10;;;;;;;;;;4930148;28;20047;-77
2023/01/29 04:58:44;;;;;;;0.10;0.10;;;;;;;;;;4929196;28;20047;-76
2023/01/29 05:01:12;;;;;;;0.10;0.10;;;;;;;;;;4927775;28;20485;-77
2023/01/29 05:03:40;;;;;;;0.10;0.10;;;;;;;;;;4925026;28;20074;-77
2023/01/29 05:06:07;;;;;;;0.10;0.10;;;;;;;;;;4929495;28;20057;-78
2023/01/29 05:08:37;;;;;;;0.10;0.10;;;;;;;;;;4927680;28;20054;-79
2023/01/29 05:11:03;;;;;;;0.10;0.10;;;;;;;;;;4929801;28;20492;-79
2023/01/29 05:13:29;;;;;;;0.10;0.10;;;;;;;;;;4930707;28;20451;-79
2023/01/29 05:16:04;;;;;;;0.10;0.10;;;;;;;;;;4929028;28;20066;-77
2023/01/29 05:18:31;;;;;;;0.17;0.17;;;;;;;;;;4922410;28;20172;-76
2023/01/29 05:20:59;;;;;;;0.10;0.10;;;;;;;;;;4919831;28;20109;-77
2023/01/29 05:23:25;;;;;;;0.10;0.10;;;;;;;;;;4923056;28;20625;-77
2023/01/29 05:25:51;;;;;;;0.10;0.10;;;;;;;;;;4925616;28;20050;-78
2023/01/29 05:28:18;;;;;;;0.10;0.10;;;;;;;;;;4924973;28;20089;-77
2023/01/29 05:30:44;;;;;;;0.10;0.10;;;;;;;;;;4925767;28;20034;-78
2023/01/29 05:33:29;;;;;;;0.10;0.10;;;;;;;;;;4929839;28;20474;-77
2023/01/29 05:35:55;;;;;;;0.10;0.10;;;;;;;;;;4925903;28;20038;-77
2023/01/29 05:38:22;;;;;;;0.10;0.10;;;;;;;;;;4929389;28;20054;-77
2023/01/29 05:40:48;;;;;;;0.10;0.10;;;;;;;;;;4928459;28;20054;-77
2023/01/29 05:43:14;;;;;;;0.10;0.10;;;;;;;;;;4926632;28;20058;-77
2023/01/29 05:45:40;;;;;;;0.10;0.10;;;;;;;;;;4926927;28;20379;-79
2023/01/29 05:48:06;;;;;;;0.10;0.10;;;;;;;;;;4927907;28;20055;-78
2023/01/29 05:50:32;;;;;;;0.10;0.10;;;;;;;;;;4928761;28;20042;-77
2023/01/29 05:52:59;;;;;;;0.13;0.13;;;;;;;;;;4926778;28;20094;-78
2023/01/29 05:55:25;;;;;;;0.10;0.10;;;;;;;;;;4926623;28;20430;-78
2023/01/29 05:57:51;;;;;;;0.20;0.20;;;;;;;;;;4929402;28;20066;-77
2023/01/29 06:00:17;;;;;;;0.10;0.10;;;;;;;;;;4930271;28;20058;-76
2023/01/29 06:02:47;;;;;;;0.10;0.10;;;;;;;;;;4933088;28;20244;-78
2023/01/29 06:05:13;;;;;;;0.10;0.10;;;;;;;;;;4935341;28;20054;-78
2023/01/29 06:07:43;;;;;;;0.10;0.10;;;;;;;;;;4934132;28;20054;-76
2023/01/29 06:10:10;;;;;;;0.10;0.10;;;;;;;;;;4926380;28;20090;-78
2023/01/29 06:12:43;;;;;;;0.10;0.10;;;;;;;;;;4936303;28;20050;-77
2023/01/29 06:15:09;;;;;;;0.10;0.10;;;;;;;;;;4931590;28;20560;-77
2023/01/29 06:17:35;;;;;;;0.10;0.10;;;;;;;;;;4933201;28;20447;-76
2023/01/29 06:20:01;;;;;;;0.10;0.10;;;;;;;;;;4932046;28;20168;-77
2023/01/29 06:22:27;;;;;;;0.10;0.10;;;;;;;;;;4933007;28;20046;-78
2023/01/29 06:24:53;;;;;;;0.10;0.10;;;;;;;;;;4932215;28;20047;-77
2023/01/29 06:27:19;;;;;;;0.10;0.10;;;;;;;;;;4930878;28;20562;-77
2023/01/29 06:29:45;;;;;;;0.10;0.10;;;;;;;;;;4931217;28;20047;-77
2023/01/29 06:32:11;;;;;;;0.10;0.10;;;;;;;;;;4929913;28;20352;-77
2023/01/29 06:34:37;;;;;;;0.10;0.10;;;;;;;;;;4930098;28;20047;-77
2023/01/29 06:37:04;;;;;;;0.10;0.10;;;;;;;;;;4933175;28;20161;-76
2023/01/29 06:39:30;;;;;;;0.10;0.10;;;;;;;;;;4932281;28;20573;-77
2023/01/29 06:41:56;;;;;;;0.10;0.10;;;;;;;;;;4931579;28;20503;-76
2023/01/29 06:44:22;;;;;;;0.10;0.10;;;;;;;;;;4931128;28;20058;-74
2023/01/29 06:46:48;;;;;;;0.10;0.10;;;;;;;;;;4927152;28;20505;-74
2023/01/29 06:49:17;;;;;;;0.10;0.10;;;;;;;;;;4930253;28;20054;-75
2023/01/29 06:51:43;;;;;;;0.10;0.10;;;;;;;;;;4933262;28;20047;-74
2023/01/29 06:54:09;;;;;;;0.10;0.10;;;;;;;;;;4933248;28;20046;-75
2023/01/29 06:56:36;;;;;;;0.10;0.10;;;;;;;;;;4934451;28;20090;-75
2023/01/29 06:59:02;;;;;;;0.10;0.10;;;;;;;;;;4930654;28;20042;-74
2023/01/29 07:01:28;;;;;;;0.10;0.10;;;;;;;;;;4918733;28;20805;-74
2023/01/29 07:03:54;;;;;;;0.10;0.10;;;;;;;;;;4929193;28;20051;-75
2023/01/29 07:06:21;;;;;;;0.10;0.10;;;;;;;;;;4930382;28;20051;-74
2023/01/29 07:08:47;;;;;;;0.10;0.10;;;;;;;;;;4931312;28;20129;-74
2023/01/29 07:11:13;;;;;;;0.17;0.17;;;;;;;;;;4934317;28;20438;-74
2023/01/29 07:13:39;;;;;;;0.10;0.10;;;;;;;;;;4934439;28;20487;-74
2023/01/29 07:16:05;;;;;;;0.10;0.10;;;;;;;;;;4934829;28;20125;-74
2023/01/29 07:18:32;;;;;;;0.10;0.10;;;;;;;;;;4930822;28;20055;-74
2023/01/29 07:20:58;;;;;;;0.10;0.10;;;;;;;;;;4921736;28;20665;-75
2023/01/29 07:23:24;;;;;;;0.10;0.10;;;;;;;;;;4929625;28;20134;-75
2023/01/29 07:25:51;;;;;;;0.10;0.10;;;;;;;;;;4927361;28;20148;-74
2023/01/29 07:28:17;;;;;;;0.10;0.10;;;;;;;;;;4929869;28;22028;-75
2023/01/29 07:30:44;;;;;;;0.10;0.10;;;;;;;;;;4930686;28;20767;-75
2023/01/29 07:33:10;;;;;;;0.10;0.10;;;;;;;;;;4931614;28;20053;-75
2023/01/29 07:35:37;;;;;;;0.15;0.15;;;;;;;;;;4931300;28;20042;-73
2023/01/29 07:38:03;;;;;;;0.20;0.20;;;;;;;;;;4930478;28;20061;-74
2023/01/29 07:40:30;;;;;;;0.35;0.30;;;;;;;;;;4929037;28;20054;-73
2023/01/29 07:42:59;;;;;;;0.10;0.10;;;;;;;;;;4931316;28;20050;-74
2023/01/29 07:45:25;;;;;;;0.10;0.10;;;;;;;;;;4929184;28;20487;-73
2023/01/29 07:47:53;;;;;;;0.10;0.10;;;;;;;;;;4929720;28;20109;-74
2023/01/29 07:50:19;;;;;;;0.10;0.10;;;;;;;;;;4930550;28;20051;-74
2023/01/29 07:52:45;;;;;;;0.13;0.13;;;;;;;;;;4930857;28;20376;-73
2023/01/29 07:55:11;;;;;;;0.10;0.10;;;;;;;;;;4925889;28;20057;-73
2023/01/29 07:57:37;;;;;;;0.10;0.10;;;;;;;;;;4929212;28;20047;-75
2023/01/29 08:00:03;;;;;;;0.20;0.20;;;;;;;;;;4929168;28;20110;-75
2023/01/29 08:02:29;;;;;;;0.10;0.10;;;;;;;;;;4926051;28;20596;-75
2023/01/29 08:04:58;;;;;;;0.10;0.10;;;;;;;;;;4923341;28;21027;-75
2023/01/29 08:07:24;;;;;;;0.13;0.13;;;;;;;;;;4928066;28;20035;-74
2023/01/29 08:09:50;;;;;;;0.10;0.10;;;;;;;;;;4921753;28;20050;-73
2023/01/29 08:12:16;;;;;;;0.10;0.10;;;;;;;;;;4921310;28;20043;-73
2023/01/29 08:14:44;;;;;;;0.10;0.10;;;;;;;;;;4928482;28;20055;-74
2023/01/29 08:17:11;;;;;;;0.10;0.10;;;;;;;;;;4926627;28;20043;-74
2023/01/29 08:19:37;;;;;;;0.10;0.10;;;;;;;;;;4927607;28;20062;-74
2023/01/29 08:22:03;;;;;;;0.10;0.10;;;;;;;;;;4930650;28;20054;-74
2023/01/29 08:24:29;;;;;;;0.10;0.10;;;;;;;;;;4929872;28;20050;-75
2023/01/29 08:26:55;;;;;;;0.10;0.10;;;;;;;;;;4927332;28;20050;-74
2023/01/29 08:29:21;;;;;;;0.20;0.20;;;;;;;;;;4929780;28;20051;-74
2023/01/29 08:31:47;;;;;;;0.20;0.20;;;;;;;;;;4925235;28;20186;-73
2023/01/29 08:34:13;;;;;;;0.20;0.20;;;;;;;;;;4933261;28;20105;-73
2023/01/29 08:36:40;;;;;;;0.10;0.10;;;;;;;;;;4925424;28;20046;-74
2023/01/29 08:39:06;;;;;;;0.20;0.20;;;;;;;;;;4930409;28;20507;-73
2023/01/29 08:41:32;;;;;;;0.13;0.13;;;;;;;;;;4932224;28;20047;-75
2023/01/29 08:43:59;;;;;;;0.20;0.20;;;;;;;;;;4926239;28;20055;-74
2023/01/29 08:46:25;;;;;;;0.10;0.10;;;;;;;;;;4932469;28;20469;-75
2023/01/29 08:48:51;;;;;;;0.10;0.10;;;;;;;;;;4932992;28;20474;-73
2023/01/29 08:51:17;;;;;;;0.10;0.10;;;;;;;;;;4926651;28;20050;-74
2023/01/29 08:53:43;;;;;;;0.10;0.10;;;;;;;;;;4930828;28;20233;-74
2023/01/29 08:56:09;;;;;;;0.10;0.10;;;;;;;;;;4929093;28;20568;-73
2023/01/29 08:58:35;;;;;;;0.10;0.10;;;;;;;;;;4931176;28;20050;-73
2023/01/29 09:01:05;;;;;;;0.10;0.10;;;;;;;;;;4933073;28;20051;-72
2023/01/29 09:03:31;;;;;;;0.13;0.13;;;;;;;;;;4914042;28;20515;-75
2023/01/29 09:05:57;;;;;;;0.10;0.10;;;;;;;;;;4926395;28;20058;-74
2023/01/29 09:08:23;;;;;;;0.20;0.20;;;;;;;;;;4929337;28;20050;-73
2023/01/29 09:10:49;;;;;;;0.10;0.10;;;;;;;;;;4926173;28;20065;-75
2023/01/29 09:13:15;;;;;;;0.10;0.10;;;;;;;;;;4929389;28;20073;-75
2023/01/29 09:15:41;;;;;;;0.20;0.20;;;;;;;;;;4926784;28;20188;-74
2023/01/29 09:18:10;;;;;;;0.10;0.10;;;;;;;;;;4929083;28;20046;-73
2023/01/29 09:20:39;;;;;;;0.10;0.10;;;;;;;;;;4920967;28;20054;-74
2023/01/29 09:23:05;;;;;;;0.10;0.10;;;;;;;;;;4927267;28;20105;-74
2023/01/29 09:25:31;;;;;;;0.10;0.10;;;;;;;;;;4925879;28;20051;-75
2023/01/29 09:27:57;;;;;;;0.10;0.10;;;;;;;;;;4929225;28;20632;-74
2023/01/29 09:30:26;;;;;;;0.13;0.13;;;;;;;;;;4930000;28;20127;-73
2023/01/29 09:32:52;;;;;;;0.13;0.13;;;;;;;;;;4934642;28;20398;-74
2023/01/29 09:35:18;;;;;;;0.17;0.17;;;;;;;;;;4935998;28;20053;-75
2023/01/29 09:37:48;;;;;;;0.10;0.10;;;;;;;;;;4938519;28;20531;-74
2023/01/29 09:40:25;;;;;;;0.10;0.10;;;;;;;;;;4932622;28;20042;-75
2023/01/29 09:42:55;;;;;;;0.20;0.20;;;;;;;;;;4929372;28;20065;-73
2023/01/29 09:45:26;;;;;;;0.10;0.10;;;;;;;;;;4937009;28;20043;-73
2023/01/29 09:47:52;;;;;;;0.20;0.20;;;;;;;;;;4936036;28;20059;-75
2023/01/29 09:50:42;;;;;;;0.10;0.10;;;;;;;;;;4933618;28;20047;-73
2023/01/29 09:53:17;;;;;;;0.10;0.10;;;;;;;;;;4932059;28;20752;-74
2023/01/29 09:55:50;;;;;;;0.10;0.10;;;;;;;;;;4936014;28;20046;-74
2023/01/29 09:58:16;;;;;;;0.10;0.10;;;;;;;;;;4931360;28;21003;-74
2023/01/29 10:00:56;;;;;;;0.20;0.20;;;;;;;;;;4931949;28;20549;-74
2023/01/29 10:03:28;;;;;;;0.10;0.10;;;;;;;;;;4926778;28;20267;-74
2023/01/29 10:05:54;;;;;;;0.10;0.10;;;;;;;;;;4925239;28;20042;-73
2023/01/29 10:08:44;;;;;;;0.10;0.10;;;;;;;;;;4928746;28;20504;-74
2023/01/29 10:11:12;;;;;;;0.10;0.10;;;;;;;;;;4923539;28;20101;-75
2023/01/29 10:13:41;;;;;;;0.17;0.17;;;;;;;;;;4926882;28;20042;-74
2023/01/29 10:16:43;;;;;;;0.10;0.10;;;;;;;;;;4931020;28;20605;-74
2023/01/29 10:19:16;;;;;;;0.10;0.10;;;;;;;;;;4884013;29;20123;-74
2023/01/29 10:21:42;;;;;;;0.10;0.10;;;;;;;;;;4920934;28;20051;-75
2023/01/29 10:24:08;;;;;;;0.20;0.20;;;;;;;;;;4931357;28;20043;-74
2023/01/29 10:26:36;;;;;;;0.10;0.10;;;;;;;;;;4927825;28;20706;-74
2023/01/29 10:29:05;;;;;;;0.10;0.10;;;;;;;;;;4932057;28;20490;-74
2023/01/29 10:31:33;;;;;;;0.10;0.10;;;;;;;;;;4929993;28;20608;-75
2023/01/29 10:34:04;;;;;;;0.10;0.10;;;;;;;;;;4926751;28;20093;-75
2023/01/29 10:36:30;;;;;;;;;;;;;;;;;;4931844;28;20043;-75
2023/01/29 10:38:56;;;;;;;0.20;0.20;;;;;;;;;;4918897;28;19981;-74
2023/01/29 10:41:30;;;;;;;0.10;0.10;;;;;;;;;;4933487;28;20049;-74
2023/01/29 10:44:11;;;;;;;0.10;0.10;;;;;;;;;;4932493;28;20558;-73
2023/01/29 10:46:47;;;;;;;0.25;0.13;;;;;;;;;;4933344;28;20059;-74
2023/01/29 10:49:13;;;;;;;0.10;0.10;;;;;;;;;;4927716;28;20055;-74
2023/01/29 10:51:42;;;;;;;0.10;0.10;;;;;;;;;;4931264;28;20398;-74
2023/01/29 10:54:14;;;;;;;0.10;0.10;;;;;;;;;;4929315;28;20191;-74
2023/01/29 10:57:00;;;;;;;0.10;0.10;;;;;;;;;;4925720;28;20053;-73
2023/01/29 10:59:26;;;;;;;0.10;0.10;;;;;;;;;;4903872;28;20050;-73
2023/01/29 11:01:57;;;;;;;0.10;0.10;;;;;;;;;;4929736;28;20122;-74
2023/01/29 11:04:23;;;;;;;0.10;0.10;;;;;;;;;;4933081;28;20053;-73
2023/01/29 11:06:52;;;;;;;0.10;0.10;;;;;;;;;;4928952;28;20050;-74
2023/01/29 11:09:27;;;;;;;0.10;0.10;;;;;;;;;;4932488;28;20419;-75
2023/01/29 11:12:05;;;;;;;0.10;0.10;;;;;;;;;;4929286;28;20081;-73
2023/01/29 11:14:37;;;;;;;0.10;0.10;;;;;;;;;;4928743;28;20058;-73
2023/01/29 11:17:06;;;;;;;0.10;0.10;;;;;;;;;;4931583;28;20145;-74
2023/01/29 11:19:37;;;;;;;0.10;0.10;;;;;;;;;;4930493;28;20118;-74
2023/01/29 11:22:03;;;;;;;0.10;0.10;;;;;;;;;;4924471;28;20051;-74
2023/01/29 11:24:29;;;;;;;0.10;0.10;;;;;;;;;;4931012;28;20379;-74
2023/01/29 11:26:57;;;;;;;0.15;0.15;;;;;;;;;;4930100;28;20142;-73
2023/01/29 11:29:26;;;;;;;0.10;0.10;;;;;;;;;;4928721;28;20272;-72
2023/01/29 11:31:52;;;;;;;0.10;0.10;;;;;;;;;;4930346;28;20054;-73
2023/01/29 11:34:24;;;;;;;0.10;0.10;;;;;;;;;;4930495;28;20458;-74
2023/01/29 11:37:00;;;;;;;0.10;0.10;;;;;;;;;;4932025;28;20260;-73
2023/01/29 11:39:27;;;;;;;0.10;0.10;;;;;;;;;;4930599;28;20426;-75
2023/01/29 11:41:58;;;;;;;0.10;0.10;;;;;;;;;;4928747;28;20058;-73
2023/01/29 11:44:30;;;;;;;0.10;0.10;;;;;;;;;;4912797;28;20134;-74
2023/01/29 11:47:10;;;;;;;0.10;0.10;;;;;;;;;;4928621;28;20502;-74
2023/01/29 11:49:37;;;;;;;0.10;0.10;;;;;;;;;;4931413;28;20058;-74
2023/01/29 11:52:04;;;;;;;0.10;0.10;;;;;;;;;;4931792;28;20635;-74
2023/01/29 11:54:32;;;;;;;0.10;0.10;;;;;;;;;;4929673;28;20049;-74
2023/01/29 11:56:58;;;;;;;0.10;0.10;;;;;;;;;;4927799;28;20047;-74
2023/01/29 11:59:27;;;;;;;0.10;0.10;;;;;;;;;;4930596;28;20050;-74
2023/01/29 12:01:54;;;;;;;0.10;0.10;;;;;;;;;;4927473;28;20150;-73
2023/01/29 12:04:22;;;;;;;0.10;0.10;;;;;;;;;;4926582;28;20384;-73
2023/01/29 12:06:51;;;;;;;0.10;0.10;;;;;;;;;;4927791;28;20058;-75
2023/01/29 12:09:19;;;;;;;0.10;0.10;;;;;;;;;;4931775;28;20452;-74
2023/01/29 12:11:45;;;;;;;0.20;0.20;;;;;;;;;;4927533;28;20985;-74
2023/01/29 12:14:35;;;;;;;0.10;0.10;;;;;;;;;;4932719;28;20047;-74
2023/01/29 12:17:19;;;;;;;0.10;0.10;;;;;;;;;;4930046;28;20057;-75
2023/01/29 12:19:48;;;;;;;0.20;0.20;;;;;;;;;;4928145;28;20073;-73
2023/01/29 12:22:17;;;;;;;0.10;0.10;;;;;;;;;;4923343;28;20495;-73
2023/01/29 12:24:49;;;;;;;0.10;0.10;;;;;;;;;;4914429;28;20581;-75
2023/01/29 12:27:35;;;;;;;0.10;0.10;;;;;;;;;;4923903;28;20132;-74
2023/01/29 12:30:11;;;;;;;0.10;0.10;;;;;;;;;;4919866;28;20082;-74
2023/01/29 12:32:55;;;;;;;0.10;0.10;;;;;;;;;;4930765;28;20093;-74
2023/01/29 12:35:37;;;;;;;0.10;0.10;;;;;;;;;;4927212;28;20051;-74
2023/01/29 12:38:15;;;;;;;0.10;0.10;;;;;;;;;;4927447;28;20374;-74
2023/01/29 12:40:54;;;;;;;0.10;0.10;;;;;;;;;;4924949;28;20656;-74
2023/01/29 12:43:46;;;;;;;0.10;0.10;;;;;;;;;;4924135;28;20601;-74
2023/01/29 12:46:24;;;;;;;0.10;0.10;;;;;;;;;;4922609;28;20085;-74
2023/01/29 12:48:52;;;;;;;0.10;0.10;;;;;;;;;;4932640;28;20051;-75
2023/01/29 12:51:20;;;;;;;0.10;0.10;;;;;;;;;;4926324;28;20042;-74
2023/01/29 12:53:49;;;;;;;1.08;0.17;;;;;;;;;;4928533;28;20503;-74
2023/01/29 12:56:18;;;;;;;0.10;0.10;;;;;;;;;;4923530;28;20060;-74
2023/01/29 12:58:46;;;;;;;0.20;0.20;;;;;;;;;;4917429;28;20050;-74
2023/01/29 13:01:15;;;;;;;0.10;0.10;;;;;;;;;;4929350;28;20038;-74
2023/01/29 13:03:53;;;;;;;0.13;0.13;;;;;;;;;;4924429;28;20046;-75
2023/01/29 13:06:26;;;;;;;0.10;0.10;;;;;;;;;;4925410;28;20148;-73
2023/01/29 13:08:54;;;;;;;0.10;0.10;;;;;;;;;;4919961;28;20065;-73
2023/01/29 13:11:39;;;;;;;0.10;0.10;;;;;;;;;;4927080;28;20046;-75
2023/01/29 13:14:04;;;;;;;;;;;;;;;;;;4925153;28;20142;-75
2023/01/29 13:16:34;;;;;;;0.10;0.10;;;;;;;;;;4927519;28;19930;-75
2023/01/29 13:19:12;;;;;;;0.10;0.10;;;;;;;;;;4930242;28;20129;-74
2023/01/29 13:21:42;;;;;;;0.10;0.10;;;;;;;;;;4932174;28;20081;-73
2023/01/29 13:24:16;;;;;;;0.10;0.10;;;;;;;;;;4926685;28;20445;-75
2023/01/29 13:26:48;;;;;;;0.10;0.10;;;;;;;;;;4928977;28;20054;-76
2023/01/29 13:29:22;;;;;;;0.10;0.10;;;;;;;;;;4914156;28;20118;-76
2023/01/29 13:31:49;;;;;;;0.10;0.10;;;;;;;;;;4929209;28;20051;-76
2023/01/29 13:34:18;;;;;;;0.10;0.10;;;;;;;;;;4922322;28;20040;-75
2023/01/29 13:36:48;;;;;;;0.10;0.10;;;;;;;;;;4920557;28;20154;-76
2023/01/29 13:39:25;;;;;;;0.10;0.10;;;;;;;;;;4926016;28;20054;-76
2023/01/29 13:41:52;;;;;;;0.10;0.10;;;;;;;;;;4914546;28;20047;-77
2023/01/29 13:44:21;;;;;;;0.10;0.10;;;;;;;;;;4910989;28;20269;-76
2023/01/29 13:46:55;;;;;;;0.10;0.10;;;;;;;;;;4915843;28;20047;-76
2023/01/29 13:49:28;;;;;;;0.10;0.10;;;;;;;;;;4931084;28;20051;-75
2023/01/29 13:51:54;;;;;;;0.10;0.10;;;;;;;;;;4929449;28;20102;-76
2023/01/29 13:54:23;;;;;;;0.10;0.10;;;;;;;;;;4930490;28;20225;-75
2023/01/29 13:56:57;;;;;;;0.10;0.10;;;;;;;;;;4931643;28;20050;-75
2023/01/29 13:59:44;;;;;;;0.10;0.10;;;;;;;;;;4930491;28;20054;-76
2023/01/29 14:02:29;;;;;;;0.10;0.10;;;;;;;;;;4928245;28;20491;-76
2023/01/29 14:05:14;;;;;;;0.10;0.10;;;;;;;;;;4929705;28;20051;-75
2023/01/29 14:07:43;;;;;;;0.10;0.10;;;;;;;;;;4929114;28;20050;-75
2023/01/29 14:10:20;;;;;;;0.10;0.10;;;;;;;;;;4929305;28;20054;-75
2023/01/29 14:12:47;;;;;;;0.10;0.10;;;;;;;;;;4930331;28;20051;-75
2023/01/29 14:15:24;;;;;;;0.20;0.20;;;;;;;;;;4930550;28;20062;-74
2023/01/29 14:17:56;;;;;;;0.20;0.20;;;;;;;;;;4929222;28;20507;-75
2023/01/29 14:20:34;;;;;;;0.10;0.10;;;;;;;;;;4934850;28;20195;-76
2023/01/29 14:23:00;;;;;;;0.10;0.10;;;;;;;;;;4934359;28;20112;-75
2023/01/29 14:25:31;;;;;;;0.10;0.10;;;;;;;;;;4932633;28;20043;-75
2023/01/29 14:28:02;;;;;;;0.10;0.10;;;;;;;;;;4930818;28;20089;-75
2023/01/29 14:30:30;;;;;;;0.10;0.10;;;;;;;;;;4916315;28;20046;-75
2023/01/29 14:32:57;;;;;;;0.10;0.10;;;;;;;;;;4911315;28;20047;-75
2023/01/29 14:35:24;;;;;;;0.10;0.10;;;;;;;;;;4931752;28;20050;-73
2023/01/29 14:37:52;;;;;;;0.10;0.10;;;;;;;;;;4932760;28;20208;-74
2023/01/29 14:40:19;;;;;;;0.10;0.10;;;;;;;;;;4934751;28;20411;-74
2023/01/29 14:43:05;;;;;;;0.10;0.10;;;;;;;;;;4927269;28;20129;-74
2023/01/29 14:45:35;;;;;;;0.10;0.10;;;;;;;;;;4917243;28;20365;-75
2023/01/29 14:48:01;;;;;;;0.10;0.10;;;;;;;;;;4932003;28;20066;-75
2023/01/29 14:50:33;;;;;;;0.10;0.10;;;;;;;;;;4931503;28;20546;-75
2023/01/29 14:53:17;;;;;;;0.10;0.10;;;;;;;;;;4919055;28;20067;-76
2023/01/29 14:55:50;;;;;;;0.20;0.20;;;;;;;;;;4921531;28;20089;-74
2023/01/29 14:58:24;;;;;;;0.10;0.10;;;;;;;;;;4929873;28;20503;-75
2023/01/29 15:00:52;;;;;;;0.15;0.15;;;;;;;;;;4933313;28;20061;-76
2023/01/29 15:03:31;;;;;;;0.20;0.20;;;;;;;;;;4931274;28;20400;-76
2023/01/29 15:05:58;;;;;;;0.10;0.10;;;;;;;;;;4930479;28;20097;-73
2023/01/29 15:08:30;;;;;;;0.10;0.10;;;;;;;;;;4930513;28;20808;-75
2023/01/29 15:13:48;;;;;;;0.10;0.10;;;;;;;;;;4931174;28;20153;-75
2023/01/29 15:16:18;;;;;;;0.10;0.10;;;;;;;;;;4929831;28;20062;-75
2023/01/29 15:18:45;;;;;;;0.10;0.10;;;;;;;;;;4932914;28;20629;-76
2023/01/29 15:21:18;;;;;;;0.20;0.20;;;;;;;;;;4931621;28;20154;-75
2023/01/29 15:23:46;;;;;;;0.20;0.20;;;;;;;;;;4929145;28;20133;-75
2023/01/29 15:26:18;;;;;;;0.10;0.10;;;;;;;;;;4925014;28;20057;-75
2023/01/29 15:28:44;;;;;;;0.13;0.13;;;;;;;;;;4915330;28;20051;-75
2023/01/29 15:31:15;;;;;;;0.10;0.10;;;;;;;;;;4915968;28;20388;-75
2023/01/29 15:33:44;;;;;;;0.10;0.10;;;;;;;;;;4929267;28;20054;-75
2023/01/29 15:36:16;;;;;;;0.10;0.10;;;;;;;;;;4932856;28;20043;-75